sensor_id;sensor_type;location;lat;lon;timestamp;temperature;humidity
39255;DHT22;24957;51.386;-2.352;2022-08-19T00:02:21;21.50;99.90
39255;DHT22;24957;51.386;-2.352;2022-08-19T00:04:46;21.60;99.90
39255;DHT22;24957;51.386;-2.352;2022-08-19T00:07:13;21.60;99.90
39255;DHT22;24957;51.386;-2.352;2022-08-19T00:09:39;21.70;99.90
39255;DHT22;24957;51.386;-2.352;2022-08-19T00:12:04;21.70;99.90
39255;DHT22;24957;51.386;-2.352;2022-08-19T00:14:30;21.60;99.90
39255;DHT22;24957;51.386;-2.352;2022-08-19T00:16:56;21.60;99.90
39255;DHT22;24957;51.386;-2.352;2022-08-19T00:19:23;21.50;99.90
39255;DHT22;24957;51.386;-2.352;2022-08-19T00:21:49;21.60;99.90
39255;DHT22;24957;51.386;-2.352;2022-08-19T00:24:14;21.50;99.90
39255;DHT22;24957;51.386;-2.352;2022-08-19T00:26:41;21.50;99.90
39255;DHT22;24957;51.386;-2.352;2022-08-19T00:29:08;21.60;99.90
39255;DHT22;24957;51.386;-2.352;2022-08-19T00:31:34;21.60;99.90
39255;DHT22;24957;51.386;-2.352;2022-08-19T00:33:59;21.50;99.90
39255;DHT22;24957;51.386;-2.352;2022-08-19T00:36:25;21.30;99.90
39255;DHT22;24957;51.386;-2.352;2022-08-19T00:38:51;21.10;99.90
39255;DHT22;24957;51.386;-2.352;2022-08-19T00:41:19;20.90;99.90
39255;DHT22;24957;51.386;-2.352;2022-08-19T00:43:58;20.50;99.90
39255;DHT22;24957;51.386;-2.352;2022-08-19T00:46:24;20.30;99.90
39255;DHT22;24957;51.386;-2.352;2022-08-19T00:48:50;20.10;99.90
39255;DHT22;24957;51.386;-2.352;2022-08-19T00:51:15;20.00;99.90
39255;DHT22;24957;51.386;-2.352;2022-08-19T00:53:41;20.00;99.90
39255;DHT22;24957;51.386;-2.352;2022-08-19T00:56:08;20.10;99.90
39255;DHT22;24957;51.386;-2.352;2022-08-19T00:58:34;20.00;99.90
39255;DHT22;24957;51.386;-2.352;2022-08-19T01:01:01;19.90;99.90
39255;DHT22;24957;51.386;-2.352;2022-08-19T01:03:27;19.90;99.90
39255;DHT22;24957;51.386;-2.352;2022-08-19T01:05:53;19.90;99.90
39255;DHT22;24957;51.386;-2.352;2022-08-19T01:08:19;19.90;99.90
39255;DHT22;24957;51.386;-2.352;2022-08-19T01:10:48;19.90;99.90
39255;DHT22;24957;51.386;-2.352;2022-08-19T01:13:15;19.80;99.90
39255;DHT22;24957;51.386;-2.352;2022-08-19T01:15:46;19.80;99.90
39255;DHT22;24957;51.386;-2.352;2022-08-19T01:18:15;19.90;99.90
39255;DHT22;24957;51.386;-2.352;2022-08-19T01:20:42;19.90;99.90
39255;DHT22;24957;51.386;-2.352;2022-08-19T01:23:08;20.00;99.90
39255;DHT22;24957;51.386;-2.352;2022-08-19T01:28:06;20.10;99.90
39255;DHT22;24957;51.386;-2.352;2022-08-19T01:30:32;20.10;99.90
39255;DHT22;24957;51.386;-2.352;2022-08-19T01:33:01;20.10;99.90
39255;DHT22;24957;51.386;-2.352;2022-08-19T01:35:27;20.10;99.90
39255;DHT22;24957;51.386;-2.352;2022-08-19T01:37:58;19.90;99.90
39255;DHT22;24957;51.386;-2.352;2022-08-19T01:40:26;19.80;99.90
39255;DHT22;24957;51.386;-2.352;2022-08-19T01:42:52;19.70;99.90
39255;DHT22;24957;51.386;-2.352;2022-08-19T01:45:19;19.50;99.90
39255;DHT22;24957;51.386;-2.352;2022-08-19T01:47:45;19.60;99.90
39255;DHT22;24957;51.386;-2.352;2022-08-19T01:50:11;19.50;99.90
39255;DHT22;24957;51.386;-2.352;2022-08-19T01:52:37;19.50;99.90
39255;DHT22;24957;51.386;-2.352;2022-08-19T01:55:04;19.50;99.90
39255;DHT22;24957;51.386;-2.352;2022-08-19T01:57:30;19.50;99.90
39255;DHT22;24957;51.386;-2.352;2022-08-19T01:59:56;19.50;99.90
39255;DHT22;24957;51.386;-2.352;2022-08-19T02:02:22;19.50;99.90
39255;DHT22;24957;51.386;-2.352;2022-08-19T02:04:48;19.50;99.90
39255;DHT22;24957;51.386;-2.352;2022-08-19T02:07:14;19.60;99.90
39255;DHT22;24957;51.386;-2.352;2022-08-19T02:09:39;19.70;99.90
39255;DHT22;24957;51.386;-2.352;2022-08-19T02:12:06;19.80;99.90
39255;DHT22;24957;51.386;-2.352;2022-08-19T02:14:33;19.80;99.90
39255;DHT22;24957;51.386;-2.352;2022-08-19T02:16:59;19.80;99.90
39255;DHT22;24957;51.386;-2.352;2022-08-19T02:19:24;19.80;99.90
39255;DHT22;24957;51.386;-2.352;2022-08-19T02:21:50;19.90;99.90
39255;DHT22;24957;51.386;-2.352;2022-08-19T02:24:15;20.00;99.90
39255;DHT22;24957;51.386;-2.352;2022-08-19T02:26:41;20.10;99.90
39255;DHT22;24957;51.386;-2.352;2022-08-19T02:29:07;20.00;99.90
39255;DHT22;24957;51.386;-2.352;2022-08-19T02:31:32;20.00;99.90
39255;DHT22;24957;51.386;-2.352;2022-08-19T02:33:58;19.80;99.90
39255;DHT22;24957;51.386;-2.352;2022-08-19T02:36:24;19.80;99.90
39255;DHT22;24957;51.386;-2.352;2022-08-19T02:38:50;19.80;99.90
39255;DHT22;24957;51.386;-2.352;2022-08-19T02:41:19;19.90;99.90
39255;DHT22;24957;51.386;-2.352;2022-08-19T02:43:45;19.90;99.90
39255;DHT22;24957;51.386;-2.352;2022-08-19T02:46:27;20.00;99.90
39255;DHT22;24957;51.386;-2.352;2022-08-19T02:48:55;20.00;99.90
39255;DHT22;24957;51.386;-2.352;2022-08-19T02:51:22;20.00;99.90
39255;DHT22;24957;51.386;-2.352;2022-08-19T02:53:48;20.10;99.90
39255;DHT22;24957;51.386;-2.352;2022-08-19T02:56:14;20.10;99.90
39255;DHT22;24957;51.386;-2.352;2022-08-19T02:58:40;20.00;99.90
39255;DHT22;24957;51.386;-2.352;2022-08-19T03:01:06;20.00;99.90
39255;DHT22;24957;51.386;-2.352;2022-08-19T03:03:32;20.00;99.90
39255;DHT22;24957;51.386;-2.352;2022-08-19T03:08:29;19.90;99.90
39255;DHT22;24957;51.386;-2.352;2022-08-19T03:10:55;19.70;99.90
39255;DHT22;24957;51.386;-2.352;2022-08-19T03:13:21;19.30;99.90
39255;DHT22;24957;51.386;-2.352;2022-08-19T03:15:47;19.20;99.90
39255;DHT22;24957;51.386;-2.352;2022-08-19T03:18:12;19.00;99.90
39255;DHT22;24957;51.386;-2.352;2022-08-19T03:20:42;19.00;99.90
39255;DHT22;24957;51.386;-2.352;2022-08-19T03:23:10;19.00;99.90
39255;DHT22;24957;51.386;-2.352;2022-08-19T03:25:41;18.90;99.90
39255;DHT22;24957;51.386;-2.352;2022-08-19T03:28:12;19.00;99.90
39255;DHT22;24957;51.386;-2.352;2022-08-19T03:30:38;18.90;99.90
39255;DHT22;24957;51.386;-2.352;2022-08-19T03:33:06;18.90;99.90
39255;DHT22;24957;51.386;-2.352;2022-08-19T03:35:32;19.00;99.90
39255;DHT22;24957;51.386;-2.352;2022-08-19T03:37:58;19.00;99.90
39255;DHT22;24957;51.386;-2.352;2022-08-19T03:40:24;19.00;99.90
39255;DHT22;24957;51.386;-2.352;2022-08-19T03:42:50;19.10;99.90
39255;DHT22;24957;51.386;-2.352;2022-08-19T03:45:16;19.10;99.90
39255;DHT22;24957;51.386;-2.352;2022-08-19T03:47:41;19.10;99.90
39255;DHT22;24957;51.386;-2.352;2022-08-19T03:50:07;19.20;99.90
39255;DHT22;24957;51.386;-2.352;2022-08-19T03:52:34;19.20;99.90
39255;DHT22;24957;51.386;-2.352;2022-08-19T03:55:01;19.20;99.90
39255;DHT22;24957;51.386;-2.352;2022-08-19T03:57:26;19.30;99.90
39255;DHT22;24957;51.386;-2.352;2022-08-19T03:59:52;19.40;99.90
39255;DHT22;24957;51.386;-2.352;2022-08-19T04:02:18;19.50;99.90
39255;DHT22;24957;51.386;-2.352;2022-08-19T04:04:43;19.60;99.90
39255;DHT22;24957;51.386;-2.352;2022-08-19T04:07:10;19.60;99.90
39255;DHT22;24957;51.386;-2.352;2022-08-19T04:09:35;19.60;99.90
39255;DHT22;24957;51.386;-2.352;2022-08-19T04:12:02;19.60;99.90
39255;DHT22;24957;51.386;-2.352;2022-08-19T04:14:30;19.60;99.90
39255;DHT22;24957;51.386;-2.352;2022-08-19T04:16:57;19.50;99.90
39255;DHT22;24957;51.386;-2.352;2022-08-19T04:19:23;19.40;99.90
39255;DHT22;24957;51.386;-2.352;2022-08-19T04:21:50;19.40;99.90
39255;DHT22;24957;51.386;-2.352;2022-08-19T04:24:16;19.30;99.90
39255;DHT22;24957;51.386;-2.352;2022-08-19T04:26:42;19.30;99.90
39255;DHT22;24957;51.386;-2.352;2022-08-19T04:29:10;19.10;99.90
39255;DHT22;24957;51.386;-2.352;2022-08-19T04:31:35;19.10;99.90
39255;DHT22;24957;51.386;-2.352;2022-08-19T04:34:03;19.10;99.90
39255;DHT22;24957;51.386;-2.352;2022-08-19T04:36:30;19.20;99.90
39255;DHT22;24957;51.386;-2.352;2022-08-19T04:38:58;19.30;99.90
39255;DHT22;24957;51.386;-2.352;2022-08-19T04:41:24;19.40;99.90
39255;DHT22;24957;51.386;-2.352;2022-08-19T04:44:10;19.50;99.90
39255;DHT22;24957;51.386;-2.352;2022-08-19T04:46:36;19.50;99.90
39255;DHT22;24957;51.386;-2.352;2022-08-19T04:49:03;19.30;99.90
39255;DHT22;24957;51.386;-2.352;2022-08-19T04:51:30;19.30;99.90
39255;DHT22;24957;51.386;-2.352;2022-08-19T04:53:56;19.30;99.90
39255;DHT22;24957;51.386;-2.352;2022-08-19T04:56:22;19.30;99.90
39255;DHT22;24957;51.386;-2.352;2022-08-19T04:58:48;19.20;99.90
39255;DHT22;24957;51.386;-2.352;2022-08-19T05:01:15;19.20;99.90
39255;DHT22;24957;51.386;-2.352;2022-08-19T05:03:43;19.10;99.90
39255;DHT22;24957;51.386;-2.352;2022-08-19T05:06:09;19.30;99.90
39255;DHT22;24957;51.386;-2.352;2022-08-19T05:08:36;19.30;99.90
39255;DHT22;24957;51.386;-2.352;2022-08-19T05:11:07;19.30;99.90
39255;DHT22;24957;51.386;-2.352;2022-08-19T05:13:33;19.20;99.90
39255;DHT22;24957;51.386;-2.352;2022-08-19T05:15:59;19.10;99.90
39255;DHT22;24957;51.386;-2.352;2022-08-19T05:18:25;19.00;99.90
39255;DHT22;24957;51.386;-2.352;2022-08-19T05:21:11;19.10;99.90
39255;DHT22;24957;51.386;-2.352;2022-08-19T05:23:56;19.00;99.90
39255;DHT22;24957;51.386;-2.352;2022-08-19T05:26:22;19.00;99.90
39255;DHT22;24957;51.386;-2.352;2022-08-19T05:28:48;19.00;99.90
39255;DHT22;24957;51.386;-2.352;2022-08-19T05:31:14;19.00;99.90
39255;DHT22;24957;51.386;-2.352;2022-08-19T05:33:39;18.90;99.90
39255;DHT22;24957;51.386;-2.352;2022-08-19T05:36:05;18.80;99.90
39255;DHT22;24957;51.386;-2.352;2022-08-19T05:38:33;18.80;99.90
39255;DHT22;24957;51.386;-2.352;2022-08-19T05:40:58;18.70;99.90
39255;DHT22;24957;51.386;-2.352;2022-08-19T05:43:24;18.80;99.90
39255;DHT22;24957;51.386;-2.352;2022-08-19T05:45:50;18.60;99.90
39255;DHT22;24957;51.386;-2.352;2022-08-19T05:48:16;18.40;99.90
39255;DHT22;24957;51.386;-2.352;2022-08-19T05:50:45;18.20;99.90
39255;DHT22;24957;51.386;-2.352;2022-08-19T05:53:12;18.20;99.90
39255;DHT22;24957;51.386;-2.352;2022-08-19T05:55:37;18.10;99.90
39255;DHT22;24957;51.386;-2.352;2022-08-19T05:58:04;18.00;99.90
39255;DHT22;24957;51.386;-2.352;2022-08-19T06:00:33;17.90;99.90
39255;DHT22;24957;51.386;-2.352;2022-08-19T06:02:58;17.90;99.90
39255;DHT22;24957;51.386;-2.352;2022-08-19T06:05:31;17.90;99.90
39255;DHT22;24957;51.386;-2.352;2022-08-19T06:07:56;17.90;99.90
39255;DHT22;24957;51.386;-2.352;2022-08-19T06:10:22;17.80;99.90
39255;DHT22;24957;51.386;-2.352;2022-08-19T06:12:49;17.80;99.90
39255;DHT22;24957;51.386;-2.352;2022-08-19T06:15:15;17.80;99.90
39255;DHT22;24957;51.386;-2.352;2022-08-19T06:17:41;17.70;99.90
39255;DHT22;24957;51.386;-2.352;2022-08-19T06:20:08;17.70;99.90
39255;DHT22;24957;51.386;-2.352;2022-08-19T06:22:39;17.70;99.90
39255;DHT22;24957;51.386;-2.352;2022-08-19T06:25:08;17.70;99.90
39255;DHT22;24957;51.386;-2.352;2022-08-19T06:27:34;17.80;99.90
39255;DHT22;24957;51.386;-2.352;2022-08-19T06:30:01;17.90;99.90
39255;DHT22;24957;51.386;-2.352;2022-08-19T06:32:27;17.80;99.90
39255;DHT22;24957;51.386;-2.352;2022-08-19T06:34:53;17.80;99.90
39255;DHT22;24957;51.386;-2.352;2022-08-19T06:37:20;17.80;99.90
39255;DHT22;24957;51.386;-2.352;2022-08-19T06:39:47;17.90;99.90
39255;DHT22;24957;51.386;-2.352;2022-08-19T06:42:12;17.90;99.90
39255;DHT22;24957;51.386;-2.352;2022-08-19T06:44:42;17.80;99.90
39255;DHT22;24957;51.386;-2.352;2022-08-19T06:47:08;17.70;99.90
39255;DHT22;24957;51.386;-2.352;2022-08-19T06:49:34;17.60;99.90
39255;DHT22;24957;51.386;-2.352;2022-08-19T06:52:00;17.70;99.90
39255;DHT22;24957;51.386;-2.352;2022-08-19T06:54:26;17.70;99.90
39255;DHT22;24957;51.386;-2.352;2022-08-19T06:56:53;17.80;99.90
39255;DHT22;24957;51.386;-2.352;2022-08-19T06:59:20;17.80;99.90
39255;DHT22;24957;51.386;-2.352;2022-08-19T07:01:50;17.80;99.90
39255;DHT22;24957;51.386;-2.352;2022-08-19T07:04:17;17.90;99.90
39255;DHT22;24957;51.386;-2.352;2022-08-19T07:06:43;18.00;99.90
39255;DHT22;24957;51.386;-2.352;2022-08-19T07:09:09;18.10;99.90
39255;DHT22;24957;51.386;-2.352;2022-08-19T07:11:35;18.10;99.90
39255;DHT22;24957;51.386;-2.352;2022-08-19T07:14:01;18.10;99.90
39255;DHT22;24957;51.386;-2.352;2022-08-19T07:16:27;18.10;99.90
39255;DHT22;24957;51.386;-2.352;2022-08-19T07:18:53;18.10;99.90
39255;DHT22;24957;51.386;-2.352;2022-08-19T07:21:20;18.10;99.90
39255;DHT22;24957;51.386;-2.352;2022-08-19T07:23:46;18.20;99.90
39255;DHT22;24957;51.386;-2.352;2022-08-19T07:26:14;18.10;99.90
39255;DHT22;24957;51.386;-2.352;2022-08-19T07:28:43;18.20;99.90
39255;DHT22;24957;51.386;-2.352;2022-08-19T07:31:10;18.20;99.90
39255;DHT22;24957;51.386;-2.352;2022-08-19T07:33:37;18.30;99.90
39255;DHT22;24957;51.386;-2.352;2022-08-19T07:36:04;18.30;99.90
39255;DHT22;24957;51.386;-2.352;2022-08-19T07:38:31;18.30;99.90
39255;DHT22;24957;51.386;-2.352;2022-08-19T07:40:57;18.40;99.90
39255;DHT22;24957;51.386;-2.352;2022-08-19T07:43:23;18.40;99.90
39255;DHT22;24957;51.386;-2.352;2022-08-19T07:45:51;18.60;99.90
39255;DHT22;24957;51.386;-2.352;2022-08-19T07:48:16;18.60;99.90
39255;DHT22;24957;51.386;-2.352;2022-08-19T07:50:42;18.70;99.90
39255;DHT22;24957;51.386;-2.352;2022-08-19T07:53:11;19.00;99.90
39255;DHT22;24957;51.386;-2.352;2022-08-19T07:55:37;19.20;99.90
39255;DHT22;24957;51.386;-2.352;2022-08-19T07:58:03;19.30;99.90
39255;DHT22;24957;51.386;-2.352;2022-08-19T08:00:30;19.10;99.90
39255;DHT22;24957;51.386;-2.352;2022-08-19T08:02:55;18.90;99.90
39255;DHT22;24957;51.386;-2.352;2022-08-19T08:05:22;18.80;99.90
39255;DHT22;24957;51.386;-2.352;2022-08-19T08:08:06;18.70;99.90
39255;DHT22;24957;51.386;-2.352;2022-08-19T08:10:50;18.70;99.90
39255;DHT22;24957;51.386;-2.352;2022-08-19T08:13:17;18.70;99.90
39255;DHT22;24957;51.386;-2.352;2022-08-19T08:15:43;18.80;99.90
39255;DHT22;24957;51.386;-2.352;2022-08-19T08:18:12;18.70;99.90
39255;DHT22;24957;51.386;-2.352;2022-08-19T08:20:38;18.60;99.90
39255;DHT22;24957;51.386;-2.352;2022-08-19T08:23:04;18.60;99.90
39255;DHT22;24957;51.386;-2.352;2022-08-19T08:25:47;18.60;99.90
39255;DHT22;24957;51.386;-2.352;2022-08-19T08:28:14;18.60;99.90
39255;DHT22;24957;51.386;-2.352;2022-08-19T08:30:40;18.60;99.90
39255;DHT22;24957;51.386;-2.352;2022-08-19T08:33:07;18.70;99.90
39255;DHT22;24957;51.386;-2.352;2022-08-19T08:35:33;18.70;99.90
39255;DHT22;24957;51.386;-2.352;2022-08-19T08:37:59;18.70;99.90
39255;DHT22;24957;51.386;-2.352;2022-08-19T08:43:11;18.80;99.90
39255;DHT22;24957;51.386;-2.352;2022-08-19T08:45:43;18.90;99.90
39255;DHT22;24957;51.386;-2.352;2022-08-19T08:48:18;18.80;99.90
39255;DHT22;24957;51.386;-2.352;2022-08-19T08:50:45;19.00;99.90
39255;DHT22;24957;51.386;-2.352;2022-08-19T08:53:13;19.00;91.40
39255;DHT22;24957;51.386;-2.352;2022-08-19T08:55:40;19.10;88.50
39255;DHT22;24957;51.386;-2.352;2022-08-19T08:58:13;19.00;83.70
39255;DHT22;24957;51.386;-2.352;2022-08-19T09:00:46;19.00;81.80
39255;DHT22;24957;51.386;-2.352;2022-08-19T09:08:22;19.20;76.90
39255;DHT22;24957;51.386;-2.352;2022-08-19T09:10:54;19.20;78.90
39255;DHT22;24957;51.386;-2.352;2022-08-19T09:16:09;19.40;73.80
39255;DHT22;24957;51.386;-2.352;2022-08-19T09:18:56;19.40;73.40
39255;DHT22;24957;51.386;-2.352;2022-08-19T09:21:23;19.60;86.20
39255;DHT22;24957;51.386;-2.352;2022-08-19T09:23:50;19.70;73.10
39255;DHT22;24957;51.386;-2.352;2022-08-19T09:26:17;19.70;72.80
39255;DHT22;24957;51.386;-2.352;2022-08-19T09:28:44;19.60;71.70
39255;DHT22;24957;51.386;-2.352;2022-08-19T09:31:10;19.60;72.20
39255;DHT22;24957;51.386;-2.352;2022-08-19T09:33:36;19.70;70.00
39255;DHT22;24957;51.386;-2.352;2022-08-19T09:36:08;19.60;69.80
39255;DHT22;24957;51.386;-2.352;2022-08-19T09:38:35;19.70;73.40
39255;DHT22;24957;51.386;-2.352;2022-08-19T09:41:04;19.80;73.40
39255;DHT22;24957;51.386;-2.352;2022-08-19T09:43:31;19.90;73.30
39255;DHT22;24957;51.386;-2.352;2022-08-19T09:45:56;20.00;72.20
39255;DHT22;24957;51.386;-2.352;2022-08-19T09:48:22;20.10;69.50
39255;DHT22;24957;51.386;-2.352;2022-08-19T09:50:48;20.10;66.90
39255;DHT22;24957;51.386;-2.352;2022-08-19T09:53:16;19.90;65.10
39255;DHT22;24957;51.386;-2.352;2022-08-19T09:55:42;19.80;66.30
39255;DHT22;24957;51.386;-2.352;2022-08-19T09:58:08;19.90;67.90
39255;DHT22;24957;51.386;-2.352;2022-08-19T10:00:33;20.00;67.40
39255;DHT22;24957;51.386;-2.352;2022-08-19T10:02:59;20.00;69.00
39255;DHT22;24957;51.386;-2.352;2022-08-19T10:05:24;20.00;67.40
39255;DHT22;24957;51.386;-2.352;2022-08-19T10:08:09;20.10;66.70
39255;DHT22;24957;51.386;-2.352;2022-08-19T10:10:35;20.10;66.50
39255;DHT22;24957;51.386;-2.352;2022-08-19T10:13:01;20.40;69.10
39255;DHT22;24957;51.386;-2.352;2022-08-19T10:15:26;20.60;69.90
39255;DHT22;24957;51.386;-2.352;2022-08-19T10:17:52;20.70;66.20
39255;DHT22;24957;51.386;-2.352;2022-08-19T10:20:18;20.70;65.90
39255;DHT22;24957;51.386;-2.352;2022-08-19T10:22:43;21.00;67.00
39255;DHT22;24957;51.386;-2.352;2022-08-19T10:25:09;21.10;63.70
39255;DHT22;24957;51.386;-2.352;2022-08-19T10:27:35;21.30;63.50
39255;DHT22;24957;51.386;-2.352;2022-08-19T10:30:00;21.20;63.20
39255;DHT22;24957;51.386;-2.352;2022-08-19T10:32:26;21.00;63.40
39255;DHT22;24957;51.386;-2.352;2022-08-19T10:34:54;21.10;65.10
39255;DHT22;24957;51.386;-2.352;2022-08-19T10:37:21;21.20;64.40
39255;DHT22;24957;51.386;-2.352;2022-08-19T10:39:47;21.20;64.40
39255;DHT22;24957;51.386;-2.352;2022-08-19T10:42:15;21.10;66.00
39255;DHT22;24957;51.386;-2.352;2022-08-19T10:44:42;21.20;66.00
39255;DHT22;24957;51.386;-2.352;2022-08-19T10:47:07;21.10;66.60
39255;DHT22;24957;51.386;-2.352;2022-08-19T10:49:33;21.10;68.50
39255;DHT22;24957;51.386;-2.352;2022-08-19T10:52:19;21.00;68.30
39255;DHT22;24957;51.386;-2.352;2022-08-19T10:55:00;20.90;70.00
39255;DHT22;24957;51.386;-2.352;2022-08-19T10:57:44;21.20;70.50
39255;DHT22;24957;51.386;-2.352;2022-08-19T11:00:10;21.10;69.80
39255;DHT22;24957;51.386;-2.352;2022-08-19T11:02:36;20.70;71.90
39255;DHT22;24957;51.386;-2.352;2022-08-19T11:05:02;20.70;73.10
39255;DHT22;24957;51.386;-2.352;2022-08-19T11:07:27;20.90;73.80
39255;DHT22;24957;51.386;-2.352;2022-08-19T11:09:53;20.80;71.90
39255;DHT22;24957;51.386;-2.352;2022-08-19T11:12:20;20.60;73.30
39255;DHT22;24957;51.386;-2.352;2022-08-19T11:14:45;20.70;78.40
39255;DHT22;24957;51.386;-2.352;2022-08-19T11:17:11;20.70;74.70
39255;DHT22;24957;51.386;-2.352;2022-08-19T11:19:38;20.40;71.80
39255;DHT22;24957;51.386;-2.352;2022-08-19T11:22:06;20.40;71.50
39255;DHT22;24957;51.386;-2.352;2022-08-19T11:24:33;20.40;71.60
39255;DHT22;24957;51.386;-2.352;2022-08-19T11:27:00;20.40;71.50
39255;DHT22;24957;51.386;-2.352;2022-08-19T11:29:27;20.40;73.20
39255;DHT22;24957;51.386;-2.352;2022-08-19T11:31:53;20.50;70.70
39255;DHT22;24957;51.386;-2.352;2022-08-19T11:34:22;20.60;71.10
39255;DHT22;24957;51.386;-2.352;2022-08-19T11:36:48;20.80;70.70
39255;DHT22;24957;51.386;-2.352;2022-08-19T11:39:15;20.90;71.60
39255;DHT22;24957;51.386;-2.352;2022-08-19T11:41:41;20.90;71.30
39255;DHT22;24957;51.386;-2.352;2022-08-19T11:44:07;21.00;71.60
39255;DHT22;24957;51.386;-2.352;2022-08-19T11:46:33;21.10;72.00
39255;DHT22;24957;51.386;-2.352;2022-08-19T11:48:59;21.50;72.20
39255;DHT22;24957;51.386;-2.352;2022-08-19T11:51:26;21.70;68.40
39255;DHT22;24957;51.386;-2.352;2022-08-19T11:53:52;21.70;67.70
39255;DHT22;24957;51.386;-2.352;2022-08-19T11:56:19;21.30;65.20
39255;DHT22;24957;51.386;-2.352;2022-08-19T11:58:45;21.00;66.20
39255;DHT22;24957;51.386;-2.352;2022-08-19T12:01:12;20.90;67.20
39255;DHT22;24957;51.386;-2.352;2022-08-19T12:03:38;21.00;67.40
39255;DHT22;24957;51.386;-2.352;2022-08-19T12:06:08;21.00;66.40
39255;DHT22;24957;51.386;-2.352;2022-08-19T12:08:34;21.10;66.70
39255;DHT22;24957;51.386;-2.352;2022-08-19T12:11:00;21.00;67.50
39255;DHT22;24957;51.386;-2.352;2022-08-19T12:13:29;21.10;68.40
39255;DHT22;24957;51.386;-2.352;2022-08-19T12:15:55;21.30;67.90
39255;DHT22;24957;51.386;-2.352;2022-08-19T12:18:21;21.60;65.60
39255;DHT22;24957;51.386;-2.352;2022-08-19T12:20:46;21.70;63.70
39255;DHT22;24957;51.386;-2.352;2022-08-19T12:23:13;21.70;63.80
39255;DHT22;24957;51.386;-2.352;2022-08-19T12:25:46;21.60;65.40
39255;DHT22;24957;51.386;-2.352;2022-08-19T12:28:19;21.80;65.30
39255;DHT22;24957;51.386;-2.352;2022-08-19T12:30:44;21.80;65.20
39255;DHT22;24957;51.386;-2.352;2022-08-19T12:33:10;21.70;66.10
39255;DHT22;24957;51.386;-2.352;2022-08-19T12:35:39;21.90;65.90
39255;DHT22;24957;51.386;-2.352;2022-08-19T12:38:05;21.90;66.70
39255;DHT22;24957;51.386;-2.352;2022-08-19T12:40:30;22.00;66.30
39255;DHT22;24957;51.386;-2.352;2022-08-19T12:42:56;22.10;66.30
39255;DHT22;24957;51.386;-2.352;2022-08-19T12:45:22;22.30;67.00
39255;DHT22;24957;51.386;-2.352;2022-08-19T12:47:48;22.10;65.40
39255;DHT22;24957;51.386;-2.352;2022-08-19T12:50:14;22.10;68.40
39255;DHT22;24957;51.386;-2.352;2022-08-19T12:52:40;22.00;67.00
39255;DHT22;24957;51.386;-2.352;2022-08-19T12:55:07;22.00;66.90
39255;DHT22;24957;51.386;-2.352;2022-08-19T12:57:33;22.00;66.70
39255;DHT22;24957;51.386;-2.352;2022-08-19T13:02:31;21.60;64.90
39255;DHT22;24957;51.386;-2.352;2022-08-19T13:04:57;21.60;64.00
39255;DHT22;24957;51.386;-2.352;2022-08-19T13:07:23;21.70;64.40
39255;DHT22;24957;51.386;-2.352;2022-08-19T13:09:50;21.60;62.50
39255;DHT22;24957;51.386;-2.352;2022-08-19T13:12:16;21.20;63.30
39255;DHT22;24957;51.386;-2.352;2022-08-19T13:14:42;20.90;64.80
39255;DHT22;24957;51.386;-2.352;2022-08-19T13:17:08;20.90;65.50
39255;DHT22;24957;51.386;-2.352;2022-08-19T13:19:37;21.00;67.20
39255;DHT22;24957;51.386;-2.352;2022-08-19T13:22:02;21.30;65.30
39255;DHT22;24957;51.386;-2.352;2022-08-19T13:24:28;21.50;64.70
39255;DHT22;24957;51.386;-2.352;2022-08-19T13:26:53;21.60;65.00
39255;DHT22;24957;51.386;-2.352;2022-08-19T13:29:19;21.60;66.00
39255;DHT22;24957;51.386;-2.352;2022-08-19T13:32:03;21.30;66.20
39255;DHT22;24957;51.386;-2.352;2022-08-19T13:34:48;21.30;66.90
39255;DHT22;24957;51.386;-2.352;2022-08-19T13:37:13;21.20;66.20
39255;DHT22;24957;51.386;-2.352;2022-08-19T13:39:39;21.00;66.10
39255;DHT22;24957;51.386;-2.352;2022-08-19T13:42:05;20.90;66.60
39255;DHT22;24957;51.386;-2.352;2022-08-19T13:44:31;20.90;63.00
39255;DHT22;24957;51.386;-2.352;2022-08-19T13:47:01;21.00;63.80
39255;DHT22;24957;51.386;-2.352;2022-08-19T13:49:29;21.20;64.10
39255;DHT22;24957;51.386;-2.352;2022-08-19T13:51:57;21.10;63.80
39255;DHT22;24957;51.386;-2.352;2022-08-19T13:56:52;21.10;63.90
39255;DHT22;24957;51.386;-2.352;2022-08-19T13:59:17;21.00;63.10
39255;DHT22;24957;51.386;-2.352;2022-08-19T14:01:43;21.10;63.50
39255;DHT22;24957;51.386;-2.352;2022-08-19T14:04:09;21.10;64.20
39255;DHT22;24957;51.386;-2.352;2022-08-19T14:06:37;21.10;64.20
39255;DHT22;24957;51.386;-2.352;2022-08-19T14:09:03;21.20;63.60
39255;DHT22;24957;51.386;-2.352;2022-08-19T14:11:29;21.30;62.80
39255;DHT22;24957;51.386;-2.352;2022-08-19T14:13:54;21.30;62.80
39255;DHT22;24957;51.386;-2.352;2022-08-19T14:16:20;21.30;62.60
39255;DHT22;24957;51.386;-2.352;2022-08-19T14:18:47;21.30;63.70
39255;DHT22;24957;51.386;-2.352;2022-08-19T14:21:22;21.40;63.20
39255;DHT22;24957;51.386;-2.352;2022-08-19T14:23:48;21.60;63.30
39255;DHT22;24957;51.386;-2.352;2022-08-19T14:26:15;21.70;62.40
39255;DHT22;24957;51.386;-2.352;2022-08-19T14:28:41;21.50;61.90
39255;DHT22;24957;51.386;-2.352;2022-08-19T14:31:14;21.40;62.60
39255;DHT22;24957;51.386;-2.352;2022-08-19T14:33:43;21.40;62.70
39255;DHT22;24957;51.386;-2.352;2022-08-19T14:36:09;21.40;63.50
39255;DHT22;24957;51.386;-2.352;2022-08-19T14:38:35;21.40;61.70
39255;DHT22;24957;51.386;-2.352;2022-08-19T14:41:05;21.60;62.00
39255;DHT22;24957;51.386;-2.352;2022-08-19T14:43:31;21.40;62.10
39255;DHT22;24957;51.386;-2.352;2022-08-19T14:45:56;21.50;61.50
39255;DHT22;24957;51.386;-2.352;2022-08-19T14:48:22;21.60;60.90
39255;DHT22;24957;51.386;-2.352;2022-08-19T14:50:48;21.70;60.30
39255;DHT22;24957;51.386;-2.352;2022-08-19T14:53:15;21.60;60.60
39255;DHT22;24957;51.386;-2.352;2022-08-19T14:55:42;21.50;62.10
39255;DHT22;24957;51.386;-2.352;2022-08-19T14:58:08;21.50;61.30
39255;DHT22;24957;51.386;-2.352;2022-08-19T15:00:34;21.60;61.40
39255;DHT22;24957;51.386;-2.352;2022-08-19T15:02:59;21.80;61.80
39255;DHT22;24957;51.386;-2.352;2022-08-19T15:05:25;21.90;60.50
39255;DHT22;24957;51.386;-2.352;2022-08-19T15:07:52;21.70;63.90
39255;DHT22;24957;51.386;-2.352;2022-08-19T15:10:19;21.90;63.90
39255;DHT22;24957;51.386;-2.352;2022-08-19T15:12:46;22.10;59.70
39255;DHT22;24957;51.386;-2.352;2022-08-19T15:15:13;22.60;59.10
39255;DHT22;24957;51.386;-2.352;2022-08-19T15:17:43;23.20;57.20
39255;DHT22;24957;51.386;-2.352;2022-08-19T15:20:10;23.10;56.60
39255;DHT22;24957;51.386;-2.352;2022-08-19T15:22:35;23.40;55.80
39255;DHT22;24957;51.386;-2.352;2022-08-19T15:25:01;23.20;55.60
39255;DHT22;24957;51.386;-2.352;2022-08-19T15:27:27;22.90;55.70
39255;DHT22;24957;51.386;-2.352;2022-08-19T15:29:53;23.30;55.60
39255;DHT22;24957;51.386;-2.352;2022-08-19T15:32:18;23.70;57.10
39255;DHT22;24957;51.386;-2.352;2022-08-19T15:34:44;24.00;53.70
39255;DHT22;24957;51.386;-2.352;2022-08-19T15:37:13;24.10;52.70